Airfield :
LOGIN :

Register | Disclaimer

   EN    FR    IT 

 










Legend :    VFR   Marginal VFR   IFR   Intensive IFR   Very Intensive IFR
Visi :
Ceiling :
>= 8 km
>= 3000ft
5 to 8 km
1000 to 3000 ft
1500m to 5 km
500 to 1000 ft
800 to 1500m
200 to 500 ft
< 800m
< 200 ft
Symbols :   Thunderstorms  Fog  Heavy snow  Heavy precipitations  Wind > 20 kt
SIGMETs :     Misc.  Thunderstorms  Icing  Turbulence  Mountain Waves  Volcanic Ashes






- Airport Elevation : 126 ft
- IATA code : WIC


EGPC - Wick

CURRENT METAR :
  • 231850Z AUTO 12003KT 9999 FEW035/// 08/03 Q0999

EXPIRED METARs :
  • 231820Z AUTO 12002KT 9999 NCD 08/03 Q1000
  • 231750Z AUTO 12004KT 9999 NCD 09/04 Q1000
  • 231720Z AUTO 11004KT //// ///////// 09/05 Q1000
  • 231650Z 13004KT 9999 FEW030 10/05 Q1000
  • 231620Z 14004KT 9999 FEW030CB 09/05 Q1000

TAF TAF EGPC
Valid from the 23 at 18:00 until the 24 at 03:00 UTC


231701Z 2318/2403 12004KT 9999 FEW030
ATIS : +44 1955 607 596



MET'MAP, your aeronautical weather chart ! - Copyright ORBIFLY December 2007 - Disclaimer

ORBIFLY MET'MAP TEAM :

Programming & Development : Alexandra Zaïnal
Concept & original design : Baudouin d'Aumeries
Assistance for programming : Marc-Olivier Méhu
Technical & hardware support : Manuel Goepfert

Contact : metmap@orbifly.com




SOURCES & CREDITS :

   NOAA